Time;durP1;ratioP1;P1;durP2;ratioP2;P2;SDS_P1;SDS_P2;PMS_P1;PMS_P2;Temp;Humidity;BMP_temperature;BMP_pressure;BME280_temperature;BME280_humidity;BME280_pressure;Samples;Min_cycle;Max_cycle;Signal;HPM_P1;HPM_P2
2024/02/21 00:01:37;;;;;;;9.37;2.20;;;4.90;90.40;;;;;;4985288;28;20199;-83
2024/02/21 00:04:04;;;;;;;5.17;2.40;;;4.90;90.60;;;;;;4991297;28;20211;-83
2024/02/21 00:06:31;;;;;;;6.70;2.30;;;4.80;90.50;;;;;;4991465;28;20203;-83
2024/02/21 00:08:59;;;;;;;4.20;2.27;;;4.80;90.70;;;;;;4987037;28;20210;-83
2024/02/21 00:11:26;;;;;;;6.50;2.17;;;4.90;90.90;;;;;;4992005;28;20204;-85
2024/02/21 00:13:53;;;;;;;3.77;2.03;;;5.00;90.90;;;;;;4992784;28;20294;-84
2024/02/21 00:16:20;;;;;;;4.23;2.03;;;4.90;90.90;;;;;;4990386;28;20204;-83
2024/02/21 00:18:47;;;;;;;5.20;2.20;;;4.90;90.80;;;;;;4988566;28;20216;-85
2024/02/21 00:21:17;;;;;;;4.93;2.03;;;5.00;90.40;;;;;;4973065;28;20218;-83
2024/02/21 00:23:45;;;;;;;6.80;2.30;;;5.00;90.20;;;;;;4983885;28;20209;-83
2024/02/21 00:26:14;;;;;;;5.93;2.10;;;5.10;90.10;;;;;;4994431;28;20203;-83
2024/02/21 00:28:40;;;;;;;5.10;2.23;;;5.20;90.00;;;;;;4983576;28;20208;-84
2024/02/21 00:31:07;;;;;;;5.17;2.23;;;5.00;90.20;;;;;;4990813;28;20542;-84
2024/02/21 00:33:34;;;;;;;5.27;2.20;;;5.20;89.20;;;;;;4988621;28;20668;-83
2024/02/21 00:36:01;;;;;;;6.67;2.80;;;5.10;89.10;;;;;;4990338;28;20204;-84
2024/02/21 00:38:28;;;;;;;6.37;2.27;;;5.10;89.80;;;;;;4988828;28;20196;-83
2024/02/21 00:40:55;;;;;;;5.23;2.17;;;5.20;89.10;;;;;;4983153;28;22615;-83
2024/02/21 00:43:24;;;;;;;5.43;2.20;;;5.10;89.10;;;;;;4986423;28;20223;-83
2024/02/21 00:45:51;;;;;;;2.80;1.97;;;5.10;89.10;;;;;;4988189;28;20196;-83
2024/02/21 00:48:21;;;;;;;6.73;2.20;;;5.20;89.10;;;;;;4985192;28;20207;-83
2024/02/21 00:50:47;;;;;;;6.77;2.10;;;5.20;89.10;;;;;;4985463;28;20200;-84
2024/02/21 00:53:14;;;;;;;6.23;2.10;;;5.20;89.10;;;;;;4988969;28;20223;-83
2024/02/21 00:55:43;;;;;;;3.37;2.10;;;5.00;89.00;;;;;;4989257;28;20211;-85
2024/02/21 00:58:13;;;;;;;5.07;2.00;;;5.00;89.70;;;;;;4991565;28;20223;-83
2024/02/21 01:00:41;;;;;;;4.83;2.00;;;5.00;89.00;;;;;;4986309;28;20205;-83
2024/02/21 01:03:08;;;;;;;3.80;1.90;;;5.00;90.30;;;;;;4987112;28;20227;-91
2024/02/21 01:05:35;;;;;;;5.07;2.23;;;5.00;90.00;;;;;;4984138;28;20200;-84
2024/02/21 01:08:02;;;;;;;5.23;2.37;;;5.00;90.10;;;;;;4989816;28;20579;-83
2024/02/21 01:10:29;;;;;;;2.53;1.77;;;5.00;90.70;;;;;;4984171;28;20191;-83
2024/02/21 01:12:59;;;;;;;3.30;2.07;;;5.00;90.10;;;;;;4983902;28;20210;-83
2024/02/21 01:15:26;;;;;;;1.90;1.67;;;5.00;90.30;;;;;;4987371;28;20192;-92
2024/02/21 01:17:55;;;;;;;3.23;1.97;;;5.10;90.50;;;;;;4981279;28;20209;-84
2024/02/21 01:20:22;;;;;;;3.67;2.20;;;5.10;89.70;;;;;;4980349;28;20200;-87
2024/02/21 01:22:49;;;;;;;2.57;1.90;;;5.20;89.10;;;;;;4988960;28;20231;-83
2024/02/21 01:25:16;;;;;;;4.90;1.77;;;5.10;89.10;;;;;;4985424;28;20208;-83
2024/02/21 01:27:43;;;;;;;2.80;1.90;;;5.10;89.10;;;;;;4988235;28;20203;-84
2024/02/21 01:30:11;;;;;;;4.30;2.20;;;5.20;89.10;;;;;;4982843;28;20224;-85
2024/02/21 01:32:38;;;;;;;2.33;1.70;;;5.20;89.10;;;;;;4974924;28;20291;-84
2024/02/21 01:35:07;;;;;;;2.97;2.03;;;5.30;89.20;;;;;;4975030;28;20226;-83
2024/02/21 01:37:34;;;;;;;4.13;1.90;;;5.30;88.60;;;;;;4964976;28;20232;-83
2024/02/21 01:40:02;;;;;;;2.73;1.90;;;5.30;89.10;;;;;;4984161;28;20200;-83
2024/02/21 01:42:29;;;;;;;3.43;2.10;;;5.20;89.10;;;;;;4986468;28;20836;-83
2024/02/21 01:44:56;;;;;;;2.17;1.70;;;5.10;90.30;;;;;;4984347;28;20266;-83
2024/02/21 01:47:23;;;;;;;5.10;1.83;;;5.10;89.10;;;;;;4991350;28;20196;-83
2024/02/21 01:49:50;;;;;;;3.43;2.10;;;5.10;89.00;;;;;;4981291;28;20207;-83
2024/02/21 01:52:19;;;;;;;3.90;2.00;;;5.20;90.00;;;;;;4989075;28;20204;-83
2024/02/21 01:54:47;;;;;;;4.10;1.87;;;5.20;89.10;;;;;;4988888;28;20204;-85
2024/02/21 01:57:14;;;;;;;2.77;1.70;;;5.20;89.10;;;;;;4980910;28;20265;-84
2024/02/21 01:59:41;;;;;;;3.47;2.00;;;5.20;89.10;;;;;;4978217;28;20204;-83
2024/02/21 02:02:08;;;;;;;3.03;1.90;;;5.20;89.10;;;;;;4990869;28;20675;-85
2024/02/21 02:04:36;;;;;;;4.37;1.83;;;5.20;90.00;;;;;;4989120;28;20200;-83
2024/02/21 02:07:05;;;;;;;3.70;1.80;;;5.20;89.10;;;;;;4988206;28;20209;-85
2024/02/21 02:09:34;;;;;;;3.63;2.57;;;5.20;89.10;;;;;;4985224;28;20208;-83
2024/02/21 02:12:02;;;;;;;3.83;2.00;;;5.10;89.00;;;;;;4987621;28;20204;-83
2024/02/21 02:14:29;;;;;;;3.50;1.80;;;5.10;89.10;;;;;;4985341;28;20231;-83
2024/02/21 02:16:56;;;;;;;4.17;1.80;;;5.10;89.00;;;;;;4988579;28;20283;-83
2024/02/21 02:19:23;;;;;;;4.77;1.80;;;5.30;89.10;;;;;;4987469;28;20196;-83
2024/02/21 02:21:56;;;;;;;2.97;1.70;;;5.20;89.10;;;;;;4985874;28;20211;-84
2024/02/21 02:24:26;;;;;;;3.97;1.80;;;5.30;89.10;;;;;;4984951;28;20248;-84
2024/02/21 02:26:53;;;;;;;2.87;1.60;;;5.30;88.10;;;;;;4987826;28;20208;-84
2024/02/21 02:29:20;;;;;;;2.80;1.70;;;5.30;87.40;;;;;;4990058;28;20782;-83
2024/02/21 02:31:47;;;;;;;1.60;1.40;;;5.30;88.10;;;;;;4988483;28;20192;-89
2024/02/21 02:34:14;;;;;;;1.83;1.40;;;5.30;86.60;;;;;;4988177;28;20211;-85
2024/02/21 02:36:40;;;;;;;2.40;1.73;;;5.20;87.80;;;;;;4983103;28;20206;-83
2024/02/21 02:39:08;;;;;;;3.30;1.57;;;5.20;89.10;;;;;;4975082;28;20207;-83
2024/02/21 02:41:37;;;;;;;3.13;1.70;;;5.20;87.90;;;;;;4989148;28;20199;-85
2024/02/21 02:44:04;;;;;;;2.50;1.50;;;5.30;88.30;;;;;;4987590;28;20220;-83
2024/02/21 02:46:31;;;;;;;3.37;1.70;;;5.20;87.30;;;;;;4996832;28;20590;-83
2024/02/21 02:48:58;;;;;;;2.00;1.67;;;5.30;86.50;;;;;;4990314;28;20200;-84
2024/02/21 02:51:25;;;;;;;2.40;1.50;;;5.30;86.80;;;;;;4988438;28;20196;-84
2024/02/21 02:53:51;;;;;;;2.43;1.40;;;5.30;86.90;;;;;;4991427;28;20200;-83
2024/02/21 02:56:18;;;;;;;1.90;1.50;;;5.30;89.00;;;;;;4995648;28;20727;-85
2024/02/21 02:58:47;;;;;;;1.57;1.30;;;5.20;87.60;;;;;;4991341;28;20204;-85
2024/02/21 03:01:14;;;;;;;2.37;1.50;;;5.30;87.10;;;;;;4993503;28;20204;-84
2024/02/21 03:03:41;;;;;;;6.03;1.70;;;5.30;85.80;;;;;;4990420;28;20314;-86
2024/02/21 03:06:08;;;;;;;2.53;1.67;;;5.30;86.10;;;;;;4989404;28;20209;-83
2024/02/21 03:08:35;;;;;;;3.97;1.43;;;5.30;84.90;;;;;;4970520;28;20232;-85
2024/02/21 03:11:02;;;;;;;3.57;1.50;;;5.30;84.70;;;;;;4987176;28;20200;-83
2024/02/21 03:13:28;;;;;;;2.17;1.40;;;5.40;84.80;;;;;;4989117;28;20207;-86
2024/02/21 03:15:57;;;;;;;1.30;1.20;;;5.40;84.40;;;;;;4989626;28;20674;-84
2024/02/21 03:18:24;;;;;;;1.77;1.40;;;5.40;84.10;;;;;;4985203;28;20204;-83
2024/02/21 03:20:51;;;;;;;1.60;1.37;;;5.40;83.80;;;;;;4994037;28;20203;-84
2024/02/21 03:23:18;;;;;;;2.30;1.77;;;5.40;83.50;;;;;;4992016;28;20573;-83
2024/02/21 03:25:45;;;;;;;2.83;1.50;;;5.60;85.20;;;;;;4988709;28;20193;-83
2024/02/21 03:28:11;;;;;;;2.20;1.50;;;5.80;82.40;;;;;;4985548;28;20670;-84
2024/02/21 03:30:38;;;;;;;1.97;1.73;;;5.80;82.40;;;;;;4992242;28;20204;-83
2024/02/21 03:33:06;;;;;;;2.25;1.45;;;5.80;82.10;;;;;;4984895;28;20215;-84
2024/02/21 03:35:33;;;;;;;2.70;1.50;;;5.80;81.50;;;;;;4973892;28;20200;-83
2024/02/21 03:38:00;;;;;;;2.53;1.60;;;5.80;80.80;;;;;;4990068;28;20206;-85
2024/02/21 03:40:27;;;;;;;3.40;1.80;;;5.90;81.40;;;;;;4987321;28;20204;-84
2024/02/21 03:42:54;;;;;;;1.83;1.43;;;5.70;80.90;;;;;;4989577;28;20212;-83
2024/02/21 03:45:21;;;;;;;2.97;1.60;;;5.60;82.10;;;;;;4975398;28;20208;-90
2024/02/21 03:47:48;;;;;;;3.43;1.73;;;5.60;82.10;;;;;;4991419;28;20196;-83
2024/02/21 03:50:16;;;;;;;1.88;1.40;;;5.60;80.90;;;;;;4985466;28;20260;-83
2024/02/21 03:52:43;;;;;;;1.70;1.23;;;5.60;81.80;;;;;;4987128;28;20201;-83
2024/02/21 03:55:10;;;;;;;3.13;1.90;;;5.60;82.70;;;;;;4985264;28;20207;-84
2024/02/21 03:57:38;;;;;;;2.20;1.30;;;5.50;83.60;;;;;;4986978;28;20259;-83
2024/02/21 04:00:10;;;;;;;4.43;2.17;;;5.70;82.70;;;;;;4975193;28;20302;-83
2024/02/21 04:02:37;;;;;;;3.00;1.70;;;5.60;84.50;;;;;;4993143;28;20196;-84
2024/02/21 04:05:05;;;;;;;2.30;1.40;;;5.70;83.30;;;;;;4969782;28;20283;-84
2024/02/21 04:07:33;;;;;;;2.77;2.00;;;5.80;81.00;;;;;;4992663;28;20207;-84
2024/02/21 04:10:00;;;;;;;3.13;1.47;;;5.90;82.40;;;;;;4976721;28;20262;-84
2024/02/21 04:12:26;;;;;;;3.80;1.80;;;5.90;79.30;;;;;;4990834;28;20204;-84
2024/02/21 04:14:53;;;;;;;4.50;1.60;;;5.80;80.20;;;;;;4990324;28;20216;-83
2024/02/21 04:17:20;;;;;;;3.03;1.63;;;5.80;80.20;;;;;;4990783;28;20691;-83
2024/02/21 04:19:47;;;;;;;3.10;1.50;;;5.90;80.10;;;;;;4993495;28;20227;-83
2024/02/21 04:22:14;;;;;;;3.73;1.40;;;5.70;79.50;;;;;;4987767;28;20653;-84
2024/02/21 04:24:42;;;;;;;3.40;1.70;;;5.60;80.70;;;;;;4992164;28;20223;-83
2024/02/21 04:27:09;;;;;;;1.73;1.23;;;5.60;81.40;;;;;;4991216;28;20698;-83
2024/02/21 04:29:36;;;;;;;2.47;1.70;;;5.50;82.50;;;;;;4990003;28;20760;-83
2024/02/21 04:32:03;;;;;;;3.50;1.37;;;5.50;82.00;;;;;;4982247;28;20203;-84
2024/02/21 04:34:30;;;;;;;2.20;1.27;;;5.50;80.80;;;;;;4990296;28;20200;-84
2024/02/21 04:36:57;;;;;;;3.27;1.43;;;5.30;82.40;;;;;;4987424;28;20210;-84
2024/02/21 04:39:24;;;;;;;2.80;1.40;;;5.40;83.00;;;;;;4991402;28;20200;-85
2024/02/21 04:41:52;;;;;;;2.47;1.50;;;5.20;82.20;;;;;;4989472;28;20243;-83
2024/02/21 04:44:21;;;;;;;3.47;1.53;;;5.40;84.60;;;;;;4989204;28;20212;-85
2024/02/21 04:46:48;;;;;;;2.80;1.70;;;5.40;83.60;;;;;;4989621;28;20291;-84
2024/02/21 04:49:15;;;;;;;1.87;1.30;;;5.50;82.90;;;;;;4969611;28;20218;-84
2024/02/21 04:51:45;;;;;;;4.37;1.60;;;5.30;82.20;;;;;;4991464;28;20200;-86
2024/02/21 04:54:12;;;;;;;2.10;1.50;;;5.30;84.50;;;;;;4990236;28;20203;-83
2024/02/21 04:56:39;;;;;;;1.77;1.47;;;5.40;83.50;;;;;;4990330;28;20221;-86
2024/02/21 04:59:07;;;;;;;1.67;1.40;;;5.30;82.90;;;;;;4982739;28;20204;-83
2024/02/21 05:01:34;;;;;;;2.63;1.60;;;5.20;84.90;;;;;;4983415;28;20648;-82
2024/02/21 05:04:02;;;;;;;3.73;1.63;;;5.20;84.00;;;;;;4988673;28;20224;-83
2024/02/21 05:06:29;;;;;;;2.80;1.40;;;5.20;84.70;;;;;;4988793;28;20204;-83
2024/02/21 05:08:57;;;;;;;2.10;1.30;;;5.20;83.50;;;;;;4989749;28;20254;-83
2024/02/21 05:11:24;;;;;;;2.27;1.63;;;4.90;84.00;;;;;;4983074;28;20208;-85
2024/02/21 05:13:51;;;;;;;2.87;1.40;;;4.90;86.90;;;;;;4990467;28;20195;-83
2024/02/21 05:16:19;;;;;;;1.97;1.30;;;4.80;84.80;;;;;;4990998;28;20581;-90
2024/02/21 05:18:46;;;;;;;2.77;1.80;;;4.70;85.10;;;;;;4985585;28;20204;-84
2024/02/21 05:21:13;;;;;;;1.57;1.47;;;4.60;86.40;;;;;;4986058;28;20200;-83
2024/02/21 05:23:40;;;;;;;3.07;1.70;;;4.50;87.60;;;;;;4991074;28;20226;-85
2024/02/21 05:26:07;;;;;;;3.13;1.73;;;4.70;86.60;;;;;;4987910;28;20214;-82
2024/02/21 05:28:34;;;;;;;3.00;1.47;;;4.60;85.40;;;;;;4990911;28;20192;-83
2024/02/21 05:31:01;;;;;;;1.27;1.17;;;4.60;86.10;;;;;;4994565;28;20199;-86
2024/02/21 05:33:36;;;;;;;1.60;1.23;;;4.50;87.10;;;;;;4991251;28;20262;-86
2024/02/21 05:36:04;;;;;;;1.57;1.03;;;4.50;87.50;;;;;;4974725;28;20663;-84
2024/02/21 05:38:31;;;;;;;3.23;1.47;;;4.40;87.10;;;;;;4976544;28;20244;-85
2024/02/21 05:40:57;;;;;;;1.97;1.40;;;4.40;88.60;;;;;;4985135;28;20691;-85
2024/02/21 05:43:24;;;;;;;2.00;1.30;;;4.40;88.60;;;;;;4986830;28;20758;-89
2024/02/21 05:45:51;;;;;;;2.00;1.60;;;4.40;88.60;;;;;;4986259;28;20200;-85
2024/02/21 05:48:18;;;;;;;1.63;1.30;;;4.40;88.60;;;;;;4985625;28;20200;-85
2024/02/21 05:50:46;;;;;;;3.90;1.40;;;4.50;88.70;;;;;;4986555;28;20208;-87
2024/02/21 05:53:13;;;;;;;3.33;1.10;;;4.40;87.40;;;;;;4984615;28;20657;-86
2024/02/21 05:55:40;;;;;;;1.17;1.00;;;4.40;87.10;;;;;;4991883;28;20306;-85
2024/02/21 05:58:07;;;;;;;1.57;1.17;;;4.50;87.20;;;;;;4992177;28;20219;-86
2024/02/21 06:00:34;;;;;;;1.27;1.17;;;4.50;88.70;;;;;;4990198;28;20599;-86
2024/02/21 06:03:01;;;;;;;1.33;1.10;;;4.50;86.10;;;;;;4994762;28;20184;-86
2024/02/21 06:05:28;;;;;;;1.37;1.10;;;4.50;85.60;;;;;;4976654;28;20293;-84
2024/02/21 06:07:56;;;;;;;2.00;1.10;;;4.50;84.40;;;;;;4991614;28;20235;-86
2024/02/21 06:10:23;;;;;;;5.83;1.00;;;4.40;86.00;;;;;;4994302;28;20208;-87
2024/02/21 06:12:50;;;;;;;1.87;1.07;;;4.30;86.20;;;;;;4994819;28;20521;-85
2024/02/21 06:25:37;;;;;;;1.97;1.10;;;4.10;89.30;;;;;;4997606;28;20216;-85
2024/02/21 06:28:05;;;;;;;4.03;1.50;;;4.10;88.40;;;;;;4990194;28;20211;-90
2024/02/21 06:30:31;;;;;;;2.33;1.30;;;4.20;88.50;;;;;;4996009;28;20556;-93
2024/02/21 06:32:59;;;;;;;1.90;1.10;;;4.40;88.60;;;;;;4996286;28;20207;-93
2024/02/21 06:35:26;;;;;;;2.33;1.53;;;4.30;88.50;;;;;;4993431;28;20200;-90
2024/02/21 06:37:53;;;;;;;1.70;1.20;;;4.40;88.60;;;;;;4992872;28;20211;-91
2024/02/21 06:40:22;;;;;;;1.80;1.30;;;4.60;87.50;;;;;;4991201;28;20214;-90
2024/02/21 06:42:51;;;;;;;3.53;1.20;;;4.70;86.20;;;;;;4989701;28;20216;-90
2024/02/21 06:45:18;;;;;;;2.50;1.43;;;4.90;85.60;;;;;;4991481;28;20568;-88
2024/02/21 06:47:46;;;;;;;5.73;1.20;;;5.30;84.90;;;;;;4986840;28;20200;-88
2024/02/21 06:50:12;;;;;;;2.17;1.07;;;5.20;81.10;;;;;;4976572;28;20220;-87
2024/02/21 09:42:07;;;;;;;1.33;1.10;;;16.20;9.50;;;;;;5122529;23;20224;-83
2024/02/21 09:44:38;;;;;;;1.48;1.10;;;16.40;9.30;;;;;;4975438;28;20623;-84
2024/02/21 09:47:12;;;;;;;1.30;1.02;;;17.00;9.00;;;;;;4975738;28;20196;-84
2024/02/21 09:53:02;;;;;;;2.30;1.30;;;18.10;7.40;;;;;;4995016;28;20642;-84
2024/02/21 12:40:32;;;;;;;1.67;1.52;;;14.40;7.10;;;;;;4975667;28;20276;-84
2024/02/21 12:43:38;;;;;;;6.25;5.13;;;14.50;9.90;;;;;;4976892;28;20211;-85
2024/02/21 12:46:07;;;;;;;1.08;0.63;;;14.70;9.90;;;;;;4987104;28;20615;-84
2024/02/21 12:49:29;;;;;;;0.90;0.70;;;14.80;6.00;;;;;;4995162;28;20206;-85
2024/02/21 13:06:10;;;;;;;5.88;3.38;;;14.30;5.50;;;;;;5109782;23;20270;-88
2024/02/21 13:08:37;;;;;;;0.90;0.90;;;14.40;5.20;;;;;;5014434;28;20199;-86
2024/02/21 13:11:04;;;;;;;1.10;0.98;;;14.60;4.10;;;;;;5014324;28;20203;-87
2024/02/21 13:13:31;;;;;;;0.57;0.50;;;14.70;3.90;;;;;;5014423;28;20679;-87
2024/02/21 13:16:39;;;;;;;0.93;0.70;;;14.70;4.40;;;;;;5014841;28;20195;-88
2024/02/21 13:22:29;;;;;;;1.40;1.30;;;14.70;4.00;;;;;;5014117;28;20178;-88
2024/02/21 13:24:56;;;;;;;1.00;0.90;;;14.80;5.40;;;;;;5013874;28;20225;-88
2024/02/21 13:27:23;;;;;;;0.63;0.63;;;14.80;5.70;;;;;;4995781;28;20206;-88
2024/02/21 13:29:50;;;;;;;0.50;0.50;;;14.60;7.50;;;;;;4994961;28;20203;-88
2024/02/21 13:32:17;;;;;;;1.58;0.70;;;14.60;5.80;;;;;;4994750;28;20202;-88
2024/02/21 13:34:44;;;;;;;0.60;0.60;;;14.60;5.60;;;;;;4998170;28;20663;-88
2024/02/21 13:37:10;;;;;;;0.60;0.60;;;14.50;5.10;;;;;;5005114;28;20195;-88
2024/02/21 13:39:39;;;;;;;0.95;0.63;;;14.50;5.60;;;;;;5014001;28;20644;-88
2024/02/21 13:42:11;;;;;;;0.70;0.70;;;14.40;4.60;;;;;;5015263;28;20210;-88
2024/02/21 13:44:38;;;;;;;0.75;0.75;;;14.40;5.20;;;;;;4996942;28;20228;-88
2024/02/21 13:47:07;;;;;;;0.50;0.50;;;14.30;3.80;;;;;;4998285;28;20242;-88
2024/02/21 13:49:35;;;;;;;2.58;0.77;;;14.20;3.90;;;;;;5002970;28;20195;-87
2024/02/21 14:03:57;;;;;;;1.27;1.15;;;14.20;4.00;;;;;;5887753;23;20234;-87
2024/02/21 14:10:27;;;;;;;0.70;0.70;;;14.50;4.40;;;;;;4994116;28;20210;-87
2024/02/21 14:13:36;;;;;;;2.35;0.82;;;14.40;3.90;;;;;;4994679;28;20199;-88
2024/02/21 14:16:03;;;;;;;0.73;0.60;;;14.50;3.50;;;;;;4994787;28;20200;-87
2024/02/21 14:18:30;;;;;;;1.38;1.27;;;14.50;4.70;;;;;;4995107;28;20188;-87
2024/02/21 14:21:13;;;;;;;1.40;0.80;;;14.50;4.60;;;;;;4994697;28;20547;-87
2024/02/21 14:23:40;;;;;;;0.70;0.70;;;14.40;4.50;;;;;;4975152;28;20550;-88
2024/02/21 14:26:07;;;;;;;7.80;1.60;;;14.30;5.00;;;;;;4975620;28;20216;-88
2024/02/21 14:32:13;;;;;;;1.20;1.10;;;14.30;5.20;;;;;;4974032;28;20220;-88
2024/02/21 14:52:43;;;;;;;4.65;3.92;;;13.70;6.90;;;;;;4977531;28;20600;-87
2024/02/21 14:55:14;;;;;;;1.90;1.60;;;13.70;6.90;;;;;;4978498;28;20200;-88
2024/02/21 14:57:42;;;;;;;2.28;1.60;;;13.60;6.90;;;;;;5001807;28;20218;-88
2024/02/21 15:10:26;;;;;;;0.98;0.88;;;13.80;6.90;;;;;;4997479;28;20252;-90
2024/02/21 15:16:59;;;;;;;0.77;0.70;;;13.60;6.80;;;;;;4996868;28;20180;-88
2024/02/21 15:22:47;;;;;;;144.80;110.57;;;13.40;9.70;;;;;;4996738;28;20171;-88
2024/02/21 15:25:17;;;;;;;5.10;4.00;;;13.60;10.10;;;;;;4977274;28;20220;-88
2024/02/21 15:27:45;;;;;;;17.20;14.10;;;13.50;8.10;;;;;;4978913;28;20197;-88
2024/02/21 15:30:21;;;;;;;5.25;3.83;;;13.40;9.50;;;;;;4996691;28;20188;-87
2024/02/21 15:33:13;;;;;;;38.75;31.10;;;13.30;8.50;;;;;;4998532;28;20207;-89
2024/02/21 15:35:41;;;;;;;8.68;7.32;;;13.30;11.30;;;;;;5000031;28;20196;-87
2024/02/21 15:38:09;;;;;;;2.42;1.90;;;13.30;10.60;;;;;;4997566;28;20286;-87
2024/02/21 15:40:36;;;;;;;25.95;21.27;;;13.10;10.40;;;;;;4975736;28;20263;-86
2024/02/21 15:43:08;;;;;;;17.23;13.95;;;13.20;11.70;;;;;;4988676;28;20200;-86
2024/02/21 16:29:39;;;;;;;7.70;4.97;;;11.80;12.70;;;;;;4996478;28;20219;-85
2024/02/21 16:35:30;;;;;;;12.05;7.75;;;11.70;12.60;;;;;;4995256;28;20218;-85
2024/02/21 16:55:25;;;;;;;3.92;2.22;;;11.30;15.20;;;;;;4993705;28;20651;-86
2024/02/21 17:23:50;;;;;;;6.55;2.67;;;10.50;19.00;;;;;;6016783;23;20159;-85
2024/02/21 17:26:17;;;;;;;6.78;2.38;;;10.40;19.30;;;;;;5013618;28;20231;-84
2024/02/21 17:28:44;;;;;;;7.25;2.00;;;10.40;20.60;;;;;;4989594;28;20199;-84
2024/02/21 17:31:11;;;;;;;6.22;3.13;;;10.30;20.50;;;;;;4999891;28;20200;-85
2024/02/21 17:33:38;;;;;;;7.88;2.80;;;10.30;22.10;;;;;;5014257;28;20572;-83
2024/02/21 17:36:49;;;;;;;6.60;3.75;;;10.20;23.80;;;;;;4996371;28;20197;-84
2024/02/21 17:39:34;;;;;;;6.95;4.22;;;10.20;23.80;;;;;;5014100;28;20203;-84
2024/02/21 17:42:04;;;;;;;5.22;3.60;;;10.20;24.90;;;;;;4991586;28;20209;-83
2024/02/21 17:47:57;;;;;;;4.28;3.00;;;10.00;23.60;;;;;;5012820;28;20201;-83
2024/02/21 17:54:25;;;;;;;8.15;2.47;;;9.70;30.00;;;;;;5013685;28;20214;-83
2024/02/21 18:05:32;;;;;;;11.07;3.63;;;9.40;34.80;;;;;;5013366;28;20310;-84
2024/02/21 18:07:59;;;;;;;3.88;2.45;;;9.40;38.50;;;;;;5013665;28;20577;-84
2024/02/21 18:10:26;;;;;;;6.03;2.40;;;9.30;39.70;;;;;;5012401;28;20184;-83
2024/02/21 18:13:19;;;;;;;4.22;2.30;;;9.20;41.60;;;;;;5013738;28;20188;-83
2024/02/21 18:16:12;;;;;;;5.30;2.85;;;9.20;44.50;;;;;;5016436;28;20191;-83
2024/02/21 18:18:42;;;;;;;6.45;2.75;;;9.10;47.60;;;;;;5010225;28;20207;-88
2024/02/21 18:21:10;;;;;;;4.03;2.00;;;9.00;47.50;;;;;;5017235;28;20204;-88
2024/02/21 18:23:37;;;;;;;6.13;2.40;;;8.90;48.10;;;;;;5017920;28;20637;-88
2024/02/21 18:26:08;;;;;;;8.90;2.90;;;8.90;48.90;;;;;;5018074;28;20230;-86
2024/02/21 18:32:17;;;;;;;5.60;2.72;;;8.80;51.60;;;;;;5017820;28;20178;-88
2024/02/21 18:34:44;;;;;;;6.07;2.60;;;8.70;51.90;;;;;;4998185;28;20215;-87
2024/02/21 18:37:13;;;;;;;8.20;2.55;;;8.70;52.20;;;;;;4980785;28;20204;-86
2024/02/21 18:39:59;;;;;;;6.03;2.40;;;8.70;53.40;;;;;;5012369;28;20195;-86
2024/02/21 18:42:26;;;;;;;4.25;2.47;;;8.60;54.70;;;;;;5013998;28;20206;-88
2024/02/21 18:44:54;;;;;;;5.70;2.60;;;8.60;54.40;;;;;;5010601;28;20207;-83
2024/02/21 18:47:21;;;;;;;5.35;2.67;;;8.70;54.10;;;;;;5014044;28;20231;-86
2024/02/21 18:49:47;;;;;;;4.63;2.70;;;8.70;54.90;;;;;;5001628;28;20211;-87
2024/02/21 18:52:16;;;;;;;6.32;2.58;;;8.70;55.10;;;;;;4976476;28;20598;-85
2024/02/21 18:54:42;;;;;;;6.43;3.03;;;8.70;54.90;;;;;;5013918;28;20210;-86
2024/02/21 18:57:09;;;;;;;9.43;4.75;;;8.70;55.10;;;;;;5024331;28;20215;-84
2024/02/21 18:59:37;;;;;;;7.60;3.67;;;8.80;55.30;;;;;;5027875;28;20207;-85
2024/02/21 19:02:04;;;;;;;5.93;2.70;;;8.80;55.80;;;;;;5017354;28;20202;-88
2024/02/21 19:04:31;;;;;;;6.28;3.75;;;8.80;54.40;;;;;;5020817;28;20209;-88
2024/02/21 19:06:58;;;;;;;8.07;5.70;;;8.80;55.90;;;;;;5036335;28;20226;-87
2024/02/21 19:16:55;;;;;;;7.03;2.80;;;8.60;56.30;;;;;;5036838;28;20185;-86
2024/02/21 19:19:23;;;;;;;4.25;3.00;;;8.50;58.90;;;;;;5029385;28;20297;-85
2024/02/21 19:21:50;;;;;;;11.35;7.82;;;8.60;59.60;;;;;;5034409;28;20542;-86
2024/02/21 19:24:17;;;;;;;13.32;9.07;;;8.70;60.50;;;;;;5019453;28;20203;-88
2024/02/21 19:26:45;;;;;;;8.23;3.75;;;8.80;61.00;;;;;;5000319;28;20284;-85
2024/02/21 19:29:12;;;;;;;5.20;3.20;;;8.80;59.40;;;;;;5036313;28;20191;-86
2024/02/21 19:32:05;;;;;;;6.50;3.85;;;8.60;59.00;;;;;;5035367;28;20276;-86
2024/02/21 19:38:28;;;;;;;6.13;3.20;;;8.50;63.10;;;;;;5035769;28;20224;-85
2024/02/21 19:47:51;;;;;;;3.75;2.53;;;8.30;65.30;;;;;;5036127;28;20201;-85
2024/02/21 19:50:21;;;;;;;3.75;2.33;;;8.20;67.30;;;;;;5035444;28;20717;-86
2024/02/21 19:52:48;;;;;;;5.07;2.80;;;8.20;68.20;;;;;;5028531;28;20274;-86
2024/02/21 19:55:16;;;;;;;5.50;2.88;;;8.10;70.30;;;;;;5031804;28;20207;-85
2024/02/21 20:05:27;;;;;;;5.88;4.25;;;7.90;72.70;;;;;;5034977;28;20189;-85
2024/02/21 20:11:51;;;;;;;5.97;3.40;;;8.00;72.90;;;;;;5039806;28;20194;-86
2024/02/21 20:17:54;;;;;;;7.78;4.43;;;7.90;72.70;;;;;;5045358;28;20189;-85
2024/02/21 20:24:13;;;;;;;5.13;3.55;;;8.20;73.10;;;;;;5054945;28;20162;-85
2024/02/21 20:27:25;;;;;;;6.45;3.70;;;8.20;73.00;;;;;;5054999;28;20206;-85
2024/02/21 20:29:53;;;;;;;5.05;3.15;;;8.10;73.00;;;;;;5016428;28;20205;-85
2024/02/21 20:32:20;;;;;;;6.47;4.10;;;8.00;72.90;;;;;;5015037;28;20195;-85
2024/02/21 20:42:18;;;;;;;5.00;3.33;;;8.50;70.40;;;;;;5014958;28;20182;-85
2024/02/21 20:51:52;;;;;;;3.80;2.95;;;8.60;65.20;;;;;;5034625;28;20183;-85
2024/02/21 21:50:24;;;;;;;3.22;2.30;;;8.80;68.60;;;;;;4997296;28;20198;-85
2024/02/21 21:52:51;;;;;;;5.40;3.00;;;8.90;70.10;;;;;;4968761;28;20218;-85
2024/02/21 22:17:17;;;;;;;4.45;2.50;;;8.50;73.50;;;;;;5017681;28;20283;-85
2024/02/21 22:26:46;;;;;;;6.90;2.88;;;8.50;73.30;;;;;;5017910;28;20552;-84
2024/02/21 22:33:06;;;;;;;7.75;3.00;;;8.80;70.70;;;;;;5015414;28;20195;-85
2024/02/21 22:38:57;;;;;;;5.03;2.97;;;8.90;69.90;;;;;;4997559;28;20195;-84
2024/02/21 22:44:52;;;;;;;3.55;2.30;;;8.90;64.00;;;;;;4997349;28;20167;-84
